Time;durP1;ratioP1;P1;durP2;ratioP2;P2;SDS_P1;SDS_P2;PMS_P1;PMS_P2;Temp;Humidity;BMP_temperature;BMP_pressure;BME280_temperature;BME280_humidity;BME280_pressure;Samples;Min_cycle;Max_cycle;Signal;HPM_P1;HPM_P2
2023/10/03 00:02:04;;;;;;;45.85;22.98;;;;;;;16.60;100.00;101035.22;5037301;28;20045;-76
2023/10/03 00:04:30;;;;;;;44.50;22.50;;;;;;;16.58;100.00;101031.81;5021378;28;20508;-76
2023/10/03 00:06:55;;;;;;;40.55;21.70;;;;;;;16.58;100.00;101023.94;5039433;28;20020;-76
2023/10/03 00:09:20;;;;;;;37.50;21.10;;;;;;;16.57;100.00;101013.47;5020908;28;20433;-77
2023/10/03 00:11:46;;;;;;;41.47;22.20;;;;;;;16.57;100.00;101016.09;5035796;28;20468;-76
2023/10/03 00:14:12;;;;;;;42.53;21.67;;;;;;;16.55;100.00;101010.06;5028087;28;20037;-76
2023/10/03 00:16:37;;;;;;;37.13;20.63;;;;;;;16.56;100.00;101002.06;5025557;28;20068;-76
2023/10/03 00:19:03;;;;;;;40.33;21.65;;;;;;;16.55;100.00;100999.53;5039392;28;20024;-76
2023/10/03 00:21:29;;;;;;;38.53;20.25;;;;;;;16.52;100.00;101005.78;5023730;28;20069;-76
2023/10/03 00:23:54;;;;;;;41.33;21.35;;;;;;;16.52;100.00;100999.66;5043628;28;20072;-76
2023/10/03 00:26:22;;;;;;;38.35;20.80;;;;;;;16.45;100.00;100992.94;5021657;28;20045;-76
2023/10/03 00:28:49;;;;;;;38.70;20.67;;;;;;;16.43;100.00;100992.19;5023020;28;20530;-77
2023/10/03 00:31:15;;;;;;;36.10;19.65;;;;;;;16.37;100.00;100988.03;5018790;28;20082;-76
2023/10/03 00:33:41;;;;;;;38.47;20.27;;;;;;;16.27;100.00;100973.59;5042522;28;20051;-76
2023/10/03 00:36:24;;;;;;;37.95;20.33;;;;;;;16.29;100.00;100984.94;5026451;28;20033;-76
2023/10/03 00:38:53;;;;;;;39.10;20.13;;;;;;;16.23;100.00;100974.66;5042654;28;20476;-77
2023/10/03 00:41:19;;;;;;;39.70;19.00;;;;;;;16.19;100.00;100971.31;5027583;28;20109;-76
2023/10/03 00:43:56;;;;;;;38.95;19.65;;;;;;;16.18;100.00;100968.75;5043535;28;20026;-77
2023/10/03 00:46:21;;;;;;;39.83;19.73;;;;;;;16.15;100.00;100964.47;5021743;28;20373;-76
2023/10/03 00:48:47;;;;;;;38.28;20.30;;;;;;;16.14;100.00;100962.78;5044360;28;20071;-76
2023/10/03 00:51:14;;;;;;;39.13;19.65;;;;;;;16.13;100.00;100950.56;5027922;28;20090;-76
2023/10/03 00:53:39;;;;;;;38.00;19.38;;;;;;;16.08;100.00;100942.00;5015830;28;20100;-77
2023/10/03 00:56:09;;;;;;;37.25;19.00;;;;;;;16.07;100.00;100930.63;5022116;28;20503;-76
2023/10/03 00:58:36;;;;;;;37.28;18.50;;;;;;;16.06;100.00;100930.72;5034196;28;20477;-77
2023/10/03 01:01:03;;;;;;;35.17;18.70;;;;;;;16.05;100.00;100926.38;5020981;28;20476;-76
2023/10/03 01:03:32;;;;;;;38.33;19.20;;;;;;;16.06;100.00;100921.06;5038111;28;20112;-76
2023/10/03 01:06:04;;;;;;;37.17;19.23;;;;;;;16.04;100.00;100909.75;5019405;28;20070;-76
2023/10/03 01:08:30;;;;;;;38.08;20.42;;;;;;;16.05;100.00;100908.81;5039584;28;20040;-77
2023/10/03 01:10:58;;;;;;;39.40;20.02;;;;;;;16.05;100.00;100902.69;5019392;28;20021;-76
2023/10/03 01:13:24;;;;;;;41.75;19.85;;;;;;;16.05;100.00;100900.91;5038250;28;20037;-77
2023/10/03 01:15:50;;;;;;;37.42;19.52;;;;;;;16.01;100.00;100894.09;5021993;28;20026;-76
2023/10/03 01:18:22;;;;;;;34.58;18.30;;;;;;;16.00;100.00;100881.88;5039170;28;20085;-76
2023/10/03 01:20:51;;;;;;;37.28;19.50;;;;;;;16.00;100.00;100881.03;5022721;28;20029;-77
2023/10/03 01:23:17;;;;;;;34.60;18.45;;;;;;;16.01;100.00;100883.56;5040170;28;20100;-77
2023/10/03 01:25:43;;;;;;;37.60;18.42;;;;;;;16.00;100.00;100886.28;5023263;28;20454;-77
2023/10/03 01:28:09;;;;;;;37.08;18.08;;;;;;;16.02;100.00;100874.78;5026196;28;20025;-76
2023/10/03 01:30:36;;;;;;;36.42;17.25;;;;;;;16.04;100.00;100878.19;5026643;28;20090;-77
2023/10/03 01:33:02;;;;;;;38.47;17.85;;;;;;;16.03;100.00;100868.59;5039318;28;20129;-77
2023/10/03 01:35:27;;;;;;;34.22;17.17;;;;;;;16.03;100.00;100867.75;5027430;28;20557;-76
2023/10/03 01:37:52;;;;;;;38.00;18.65;;;;;;;16.03;100.00;100880.91;5040854;28;20109;-77
2023/10/03 01:40:19;;;;;;;33.17;16.33;;;;;;;16.07;100.00;100867.53;4997093;28;20090;-76
2023/10/03 01:42:46;;;;;;;38.55;17.30;;;;;;;16.12;100.00;100869.94;5037565;28;20012;-76
2023/10/03 01:45:17;;;;;;;36.88;16.60;;;;;;;16.12;100.00;100864.66;5005025;28;20026;-76
2023/10/03 01:47:47;;;;;;;33.47;16.65;;;;;;;16.19;100.00;100873.16;5019362;28;20359;-76
2023/10/03 01:50:14;;;;;;;35.22;16.92;;;;;;;16.22;100.00;100870.34;5023949;28;20029;-76
2023/10/03 01:52:42;;;;;;;33.97;17.02;;;;;;;16.29;100.00;100871.81;5034170;28;20426;-76
2023/10/03 01:55:12;;;;;;;33.17;16.63;;;;;;;16.34;100.00;100864.53;5021832;28;20113;-77
2023/10/03 01:57:39;;;;;;;31.35;15.80;;;;;;;16.37;100.00;100862.59;5035756;28;20470;-76
2023/10/03 02:00:18;;;;;;;32.20;16.02;;;;;;;16.43;100.00;100864.09;5022058;28;20130;-76
2023/10/03 02:02:43;;;;;;;29.20;15.55;;;;;;;16.47;100.00;100857.75;5042775;28;20024;-76
2023/10/03 02:05:08;;;;;;;33.50;16.08;;;;;;;16.52;100.00;100861.03;5022000;28;20425;-77
2023/10/03 02:07:34;;;;;;;28.80;15.30;;;;;;;16.53;100.00;100849.56;5045446;28;20026;-76
2023/10/03 02:10:01;;;;;;;32.58;16.05;;;;;;;16.60;100.00;100848.34;5019317;28;20038;-77
2023/10/03 02:12:27;;;;;;;30.80;15.50;;;;;;;16.61;100.00;100860.59;5041810;28;20132;-76
2023/10/03 02:14:54;;;;;;;31.25;15.65;;;;;;;16.67;100.00;100845.44;5019269;28;20049;-76
2023/10/03 02:17:19;;;;;;;31.90;15.35;;;;;;;16.70;100.00;100850.53;5044361;28;20025;-76
2023/10/03 02:19:45;;;;;;;29.98;15.30;;;;;;;16.71;100.00;100832.06;5029790;28;20108;-76
2023/10/03 02:22:12;;;;;;;35.00;15.13;;;;;;;16.76;100.00;100819.53;5044440;28;20065;-76
2023/10/03 02:24:38;;;;;;;29.88;15.35;;;;;;;16.83;100.00;100815.66;5031097;28;20053;-76
2023/10/03 02:27:06;;;;;;;31.42;16.23;;;;;;;16.87;100.00;100811.09;5044755;28;20144;-76
2023/10/03 02:29:31;;;;;;;29.58;15.52;;;;;;;16.91;100.00;100820.56;5011850;28;20078;-76
2023/10/03 02:31:58;;;;;;;35.60;14.98;;;;;;;16.94;100.00;100832.69;5049920;28;20026;-76
2023/10/03 02:34:23;;;;;;;32.15;15.55;;;;;;;16.94;100.00;100848.50;5036527;28;20025;-76
2023/10/03 02:36:49;;;;;;;31.08;15.52;;;;;;;16.87;100.00;100836.56;5051666;28;20034;-76
2023/10/03 02:39:18;;;;;;;29.30;15.00;;;;;;;16.79;100.00;100835.19;5036338;28;20105;-76
2023/10/03 02:41:44;;;;;;;31.77;15.95;;;;;;;16.78;100.00;100816.84;5054101;28;20059;-76
2023/10/03 02:44:09;;;;;;;27.52;14.25;;;;;;;16.80;100.00;100838.66;5034179;28;20072;-76
2023/10/03 02:46:35;;;;;;;25.77;13.45;;;;;;;16.77;100.00;100829.13;5023783;28;20100;-76
2023/10/03 02:49:00;;;;;;;31.08;15.35;;;;;;;16.80;100.00;100839.50;5039942;28;20025;-76
2023/10/03 02:51:25;;;;;;;31.92;15.25;;;;;;;16.82;100.00;100835.03;5027316;28;20465;-76
2023/10/03 02:53:51;;;;;;;29.23;14.75;;;;;;;16.81;100.00;100849.13;5045116;28;20035;-76
2023/10/03 02:56:16;;;;;;;27.65;14.38;;;;;;;16.76;100.00;100842.38;5027129;28;20508;-77
2023/10/03 02:58:42;;;;;;;28.92;14.93;;;;;;;16.79;100.00;100839.59;5043991;28;20032;-76
2023/10/03 03:01:09;;;;;;;25.83;13.98;;;;;;;16.90;100.00;100847.81;5030864;28;20520;-76
2023/10/03 03:03:34;;;;;;;31.48;14.10;;;;;;;16.92;100.00;100851.22;5035551;28;20034;-76
2023/10/03 03:06:02;;;;;;;28.45;12.82;;;;;;;17.01;100.00;100842.88;5041190;28;20530;-76
2023/10/03 03:08:28;;;;;;;22.73;11.60;;;;;;;17.12;100.00;100844.97;5027664;28;20116;-76
2023/10/03 03:10:56;;;;;;;22.88;11.65;;;;;;;17.14;100.00;100839.63;5050499;28;20103;-76
2023/10/03 03:13:26;;;;;;;23.80;11.85;;;;;;;17.13;100.00;100845.81;5025181;28;20081;-76
2023/10/03 03:16:05;;;;;;;23.83;12.07;;;;;;;17.10;100.00;100841.53;5054190;28;20350;-76
2023/10/03 03:18:40;;;;;;;29.38;13.50;;;;;;;17.11;100.00;100845.06;5025784;28;20854;-76
2023/10/03 03:21:20;;;;;;;26.10;12.30;;;;;;;17.09;100.00;100845.09;5026259;28;20031;-76
2023/10/03 03:23:56;;;;;;;23.13;12.25;;;;;;;17.05;100.00;100844.41;5030855;28;20042;-76
2023/10/03 03:26:24;;;;;;;23.42;12.90;;;;;;;17.06;100.00;100840.84;5030024;28;20068;-76
2023/10/03 03:28:50;;;;;;;25.73;12.13;;;;;;;17.08;100.00;100846.91;5019508;28;20083;-76
2023/10/03 03:33:46;;;;;;;24.85;13.02;;;;;;;17.03;100.00;100833.09;5025825;28;20044;-76
2023/10/03 03:36:17;;;;;;;26.75;12.60;;;;;;;17.06;100.00;100837.38;5060090;28;20021;-76
2023/10/03 03:38:43;;;;;;;22.77;12.25;;;;;;;17.08;100.00;100835.50;5020512;28;20492;-77
2023/10/03 03:41:08;;;;;;;21.92;11.40;;;;;;;17.12;100.00;100825.66;5055424;28;20050;-76
2023/10/03 03:43:34;;;;;;;23.02;11.88;;;;;;;17.09;100.00;100832.78;5030517;28;20049;-76
2023/10/03 03:45:59;;;;;;;19.20;10.65;;;;;;;17.11;100.00;100837.16;5051759;28;20022;-76
2023/10/03 03:48:25;;;;;;;21.80;11.15;;;;;;;17.15;100.00;100841.31;5046113;28;20041;-76
2023/10/03 03:50:51;;;;;;;21.27;10.35;;;;;;;17.18;100.00;100830.63;5032804;28;20029;-76
2023/10/03 03:53:18;;;;;;;19.25;10.75;;;;;;;17.21;100.00;100841.88;5030676;28;20090;-76
2023/10/03 03:55:44;;;;;;;18.33;9.55;;;;;;;17.23;100.00;100844.41;5042077;28;20057;-76
2023/10/03 03:58:16;;;;;;;20.38;10.10;;;;;;;17.32;100.00;100849.22;5025181;28;20757;-76
2023/10/03 04:00:47;;;;;;;20.50;10.48;;;;;;;17.32;100.00;100843.94;5022594;28;20036;-76
2023/10/03 04:03:14;;;;;;;17.60;9.50;;;;;;;17.38;100.00;100859.44;5025056;28;20492;-77
2023/10/03 04:05:40;;;;;;;16.73;9.32;;;;;;;17.41;100.00;100861.91;5051840;28;20026;-76
2023/10/03 04:08:07;;;;;;;19.85;9.75;;;;;;;17.43;100.00;100852.16;5022840;28;20121;-77
2023/10/03 04:10:36;;;;;;;16.77;9.23;;;;;;;17.45;100.00;100855.53;5049004;28;20030;-76
2023/10/03 04:13:04;;;;;;;18.35;9.30;;;;;;;17.45;100.00;100859.97;5025544;28;20022;-77
2023/10/03 04:15:31;;;;;;;15.98;8.48;;;;;;;17.50;100.00;100871.13;5046387;28;20033;-76
2023/10/03 04:17:56;;;;;;;17.25;8.75;;;;;;;17.54;100.00;100864.78;5031718;28;20030;-76
2023/10/03 04:22:52;;;;;;;14.30;8.52;;;;;;;17.54;100.00;100884.06;5031995;28;20034;-76
2023/10/03 04:25:21;;;;;;;15.00;8.77;;;;;;;17.60;100.00;100880.28;5048285;28;20104;-76
2023/10/03 04:27:51;;;;;;;17.63;8.85;;;;;;;17.64;100.00;100888.88;5025414;28;20026;-77
2023/10/03 04:30:19;;;;;;;16.20;8.48;;;;;;;17.67;100.00;100891.34;5048650;28;20025;-77
2023/10/03 04:32:47;;;;;;;15.05;8.18;;;;;;;17.69;100.00;100895.63;5035048;28;20026;-76
2023/10/03 04:35:13;;;;;;;15.02;8.07;;;;;;;17.70;100.00;100899.94;5049057;28;20026;-76
2023/10/03 04:37:41;;;;;;;15.48;7.97;;;;;;;17.72;100.00;100894.56;5034940;28;20033;-77
2023/10/03 04:40:13;;;;;;;14.00;7.72;;;;;;;17.74;100.00;100895.34;5049552;28;20057;-77
2023/10/03 04:42:38;;;;;;;13.77;7.40;;;;;;;17.81;100.00;100891.50;5035293;28;20025;-76
2023/10/03 04:45:10;;;;;;;19.73;7.43;;;;;;;17.83;100.00;100889.63;5018586;28;20106;-77
2023/10/03 04:47:36;;;;;;;15.13;6.45;;;;;;;17.79;100.00;100901.28;5034667;28;20030;-76
2023/10/03 04:50:02;;;;;;;13.50;6.45;;;;;;;17.77;100.00;100908.41;5041837;28;20018;-77
2023/10/03 04:52:27;;;;;;;14.75;6.45;;;;;;;17.74;100.00;100913.81;5025960;28;20489;-77
2023/10/03 04:54:53;;;;;;;13.52;6.53;;;;;;;17.70;100.00;100917.56;5042546;28;20030;-77
2023/10/03 04:57:18;;;;;;;14.85;6.30;;;;;;;17.70;100.00;100909.66;5026623;28;20030;-76
2023/10/03 04:59:43;;;;;;;15.82;6.82;;;;;;;17.68;100.00;100930.78;5044217;28;20029;-77
2023/10/03 05:02:11;;;;;;;13.98;6.72;;;;;;;17.65;100.00;100912.50;5029377;28;20116;-77
2023/10/03 05:04:37;;;;;;;14.07;6.63;;;;;;;17.69;100.00;100921.09;5041707;28;20036;-77
2023/10/03 05:07:03;;;;;;;13.30;6.50;;;;;;;17.67;100.00;100907.16;5030073;28;20387;-77
2023/10/03 05:09:30;;;;;;;13.63;7.13;;;;;;;17.65;100.00;100949.41;5044575;28;20091;-77
2023/10/03 05:11:56;;;;;;;15.35;7.00;;;;;;;17.63;100.00;100958.34;5060492;28;20052;-77
2023/10/03 05:14:21;;;;;;;16.00;6.90;;;;;;;17.57;100.00;100954.22;5055186;28;20387;-77
2023/10/03 05:16:50;;;;;;;15.20;7.13;;;;;;;17.53;100.00;100964.09;5058998;28;20028;-77
2023/10/03 05:19:16;;;;;;;18.25;6.78;;;;;;;17.57;100.00;100980.59;5048933;28;20065;-77
2023/10/03 05:21:43;;;;;;;15.27;7.18;;;;;;;17.54;100.00;100980.75;5059200;28;20100;-77
2023/10/03 05:24:11;;;;;;;13.43;6.47;;;;;;;17.53;100.00;100973.78;5058975;28;20026;-77
2023/10/03 05:26:39;;;;;;;18.92;7.60;;;;;;;17.49;100.00;100957.28;5037610;28;20107;-77
2023/10/03 05:29:05;;;;;;;13.70;7.45;;;;;;;17.46;100.00;100944.25;5019542;28;20072;-76
2023/10/03 05:31:30;;;;;;;12.40;7.10;;;;;;;17.44;100.00;100945.25;5044560;28;20481;-77
2023/10/03 05:33:56;;;;;;;16.90;7.53;;;;;;;17.42;100.00;100955.84;5029484;28;20052;-77
2023/10/03 05:36:22;;;;;;;14.77;7.85;;;;;;;17.37;100.00;100941.22;5047403;28;20467;-77
2023/10/03 05:38:48;;;;;;;13.90;7.30;;;;;;;17.34;100.00;100950.13;5030047;28;20022;-77
2023/10/03 05:41:21;;;;;;;12.38;7.43;;;;;;;17.31;100.00;100956.38;5046073;28;20360;-77
2023/10/03 05:43:49;;;;;;;14.73;8.07;;;;;;;17.30;100.00;100967.03;5026759;28;20048;-76
2023/10/03 05:46:15;;;;;;;10.60;7.07;;;;;;;17.28;100.00;100953.06;5044125;28;20016;-76
2023/10/03 05:48:40;;;;;;;11.68;6.90;;;;;;;17.30;100.00;100957.31;5015485;28;20026;-76
2023/10/03 05:51:06;;;;;;;12.02;6.85;;;;;;;17.30;100.00;100959.13;5038202;28;20057;-77
2023/10/03 05:53:33;;;;;;;12.23;7.00;;;;;;;17.28;100.00;100958.31;5025053;28;20108;-77
2023/10/03 05:55:58;;;;;;;10.43;6.65;;;;;;;17.28;100.00;100960.97;5038126;28;20091;-77
2023/10/03 05:58:24;;;;;;;12.90;6.90;;;;;;;17.22;100.00;100953.34;5026049;28;20473;-77
2023/10/03 06:00:49;;;;;;;9.27;6.55;;;;;;;17.19;100.00;100954.34;5040119;28;20107;-76
2023/10/03 06:03:15;;;;;;;12.90;6.75;;;;;;;17.18;100.00;100963.19;5025023;28;20032;-77
2023/10/03 06:05:41;;;;;;;10.35;6.50;;;;;;;17.20;100.00;100969.25;5046005;28;20122;-77
2023/10/03 06:08:07;;;;;;;13.07;6.90;;;;;;;17.19;100.00;100964.88;5026681;28;20116;-76
2023/10/03 06:10:32;;;;;;;14.48;7.30;;;;;;;17.26;100.00;100966.28;5043507;28;20040;-76
2023/10/03 06:12:57;;;;;;;10.57;6.57;;;;;;;17.25;100.00;100966.38;5034746;28;20393;-76
2023/10/03 06:15:24;;;;;;;13.10;6.72;;;;;;;17.24;100.00;100959.41;5032279;28;20028;-77
2023/10/03 06:17:52;;;;;;;11.25;6.65;;;;;;;17.26;100.00;100970.72;5045662;28;20047;-77
2023/10/03 06:20:18;;;;;;;12.15;6.75;;;;;;;17.27;100.00;100985.63;5027732;28;20033;-77
2023/10/03 06:22:43;;;;;;;14.20;6.88;;;;;;;17.27;100.00;100985.63;5052563;28;20490;-77
2023/10/03 06:25:09;;;;;;;10.52;6.43;;;;;;;17.27;100.00;100985.63;5025070;28;20112;-76
2023/10/03 06:27:37;;;;;;;10.60;7.15;;;;;;;17.26;100.00;100991.78;5046850;28;20030;-77
2023/10/03 06:30:03;;;;;;;13.27;7.85;;;;;;;17.24;100.00;100983.97;5023776;28;20033;-77
2023/10/03 06:32:28;;;;;;;13.48;6.82;;;;;;;17.26;100.00;100991.78;5048910;28;20033;-77
2023/10/03 06:34:53;;;;;;;14.52;6.60;;;;;;;17.27;100.00;100994.38;5033687;28;20029;-77
2023/10/03 06:37:19;;;;;;;11.80;6.78;;;;;;;17.29;100.00;100996.91;5048821;28;20083;-77
2023/10/03 06:39:45;;;;;;;15.20;7.80;;;;;;;17.35;100.00;100986.06;5034343;28;20029;-77
2023/10/03 06:42:11;;;;;;;15.63;8.05;;;;;;;17.34;100.00;100991.44;5048540;28;20036;-77
2023/10/03 06:44:36;;;;;;;13.88;6.68;;;;;;;17.33;100.00;101006.41;5035036;28;20036;-77
2023/10/03 06:47:04;;;;;;;12.45;6.97;;;;;;;17.36;100.00;101008.84;5046770;28;20049;-76
2023/10/03 06:49:29;;;;;;;12.05;6.72;;;;;;;17.36;100.00;101008.00;5017047;28;20032;-76
2023/10/03 06:51:57;;;;;;;9.98;6.97;;;;;;;17.34;100.00;101023.91;5042929;28;20033;-77
2023/10/03 06:54:23;;;;;;;10.77;6.85;;;;;;;17.34;100.00;101030.97;5023542;28;20037;-77
2023/10/03 06:56:49;;;;;;;10.35;6.85;;;;;;;17.37;100.00;101030.81;5042241;28;20472;-77
2023/10/03 06:59:15;;;;;;;10.15;6.30;;;;;;;17.37;100.00;101021.13;5026624;28;20026;-76
2023/10/03 07:01:41;;;;;;;14.57;7.53;;;;;;;17.47;100.00;101029.44;5043864;28;20045;-76
2023/10/03 07:04:06;;;;;;;10.10;6.90;;;;;;;17.49;100.00;101044.25;5026718;28;20384;-77
2023/10/03 07:06:33;;;;;;;16.23;7.22;;;;;;;17.46;100.00;101039.13;5044686;28;20032;-77
2023/10/03 07:08:58;;;;;;;17.00;7.45;;;;;;;17.41;100.00;101027.94;5030085;28;20030;-76
2023/10/03 07:11:24;;;;;;;9.98;6.63;;;;;;;17.44;100.00;101037.50;5042692;28;20026;-77
2023/10/03 07:13:49;;;;;;;12.02;7.13;;;;;;;17.36;100.00;101029.09;5031063;28;20422;-77
2023/10/03 07:16:16;;;;;;;13.70;6.97;;;;;;;17.36;100.00;101032.56;5043787;28;20028;-77
2023/10/03 07:18:43;;;;;;;9.75;6.60;;;;;;;17.35;100.00;101030.88;5030608;28;20358;-77
2023/10/03 07:21:09;;;;;;;14.15;7.25;;;;;;;17.32;100.00;101034.50;5046675;28;20070;-76
2023/10/03 07:23:34;;;;;;;16.52;8.00;;;;;;;17.32;100.00;101037.13;5030581;28;20418;-77
2023/10/03 07:25:59;;;;;;;15.07;8.02;;;;;;;17.33;100.00;101051.19;5048561;28;20035;-77
2023/10/03 07:28:25;;;;;;;13.07;7.55;;;;;;;17.26;100.00;101050.59;5014439;28;20090;-76
2023/10/03 07:30:50;;;;;;;15.77;8.18;;;;;;;17.24;100.00;101056.91;5041210;28;20058;-77
2023/10/03 07:33:15;;;;;;;14.38;7.88;;;;;;;17.36;100.00;101050.16;5040829;27;20381;-77
2023/10/03 07:35:44;;;;;;;12.55;7.22;;;;;;;17.42;100.00;101056.00;5030760;28;20075;-77
2023/10/03 07:38:11;;;;;;;15.25;8.70;;;;;;;17.53;100.00;101074.78;5050284;28;20019;-77
2023/10/03 07:40:40;;;;;;;13.48;7.75;;;;;;;17.61;100.00;101061.22;5025992;28;20374;-77
2023/10/03 07:43:07;;;;;;;11.20;7.30;;;;;;;17.70;100.00;101060.78;5026592;28;20040;-77
2023/10/03 07:45:32;;;;;;;15.40;7.53;;;;;;;17.78;100.00;101081.50;5024682;28;20029;-76
2023/10/03 07:48:04;;;;;;;16.40;7.63;;;;;;;17.76;100.00;101081.59;5034785;28;20039;-77
2023/10/03 07:50:31;;;;;;;12.07;7.25;;;;;;;17.73;100.00;101094.06;5042525;28;20038;-77
2023/10/03 07:52:57;;;;;;;11.23;7.85;;;;;;;17.69;100.00;101092.47;5023408;28;20060;-77
2023/10/03 07:55:25;;;;;;;11.50;6.75;;;;;;;17.63;100.00;101109.47;5044588;28;20361;-77
2023/10/03 07:57:54;;;;;;;13.80;7.63;;;;;;;17.63;100.00;101098.91;5020095;28;20018;-77
2023/10/03 08:00:20;;;;;;;11.10;7.15;;;;;;;17.63;100.00;101079.63;5039005;28;20095;-77
2023/10/03 08:02:46;;;;;;;10.65;7.25;;;;;;;17.70;100.00;101099.47;5031752;28;20227;-76
2023/10/03 08:05:12;;;;;;;15.13;7.18;;;;;;;17.75;100.00;101100.94;5029807;28;20422;-77
2023/10/03 08:07:38;;;;;;;11.02;6.53;;;;;;;17.75;100.00;101110.63;5041415;28;20040;-77
2023/10/03 08:10:05;;;;;;;14.13;7.43;;;;;;;17.72;100.00;101118.69;5024836;28;20025;-77
2023/10/03 08:12:37;;;;;;;10.20;7.57;;;;;;;17.63;100.00;101130.56;5049189;28;20033;-77
2023/10/03 08:15:03;;;;;;;17.20;7.80;;;;;;;17.50;100.00;101139.97;5023140;28;20572;-77
2023/10/03 08:17:31;;;;;;;14.77;8.38;;;;;;;17.16;100.00;101132.78;5051315;28;20116;-77
2023/10/03 08:19:56;;;;;;;15.13;9.50;;;;;;;16.88;100.00;101149.00;5016042;28;20026;-76
2023/10/03 08:22:22;;;;;;;12.07;8.13;;;;;;;16.61;100.00;101171.19;5044895;28;20030;-77
2023/10/03 08:24:48;;;;;;;11.73;7.97;;;;;;;16.44;100.00;101164.91;5019325;28;20109;-77
2023/10/03 08:27:21;;;;;;;13.40;8.63;;;;;;;16.36;100.00;101162.63;5044276;28;20033;-77
2023/10/03 08:29:53;;;;;;;13.07;8.38;;;;;;;16.44;100.00;101167.56;5023110;28;20040;-78
2023/10/03 08:32:19;;;;;;;14.07;8.65;;;;;;;16.46;100.00;101173.63;5046678;28;20472;-77
2023/10/03 08:34:46;;;;;;;9.68;6.40;;;;;;;16.41;100.00;101179.06;5030836;28;20073;-77
2023/10/03 08:37:21;;;;;;;11.65;6.90;;;;;;;16.34;100.00;101170.56;5047728;28;20049;-77
2023/10/03 08:39:48;;;;;;;11.98;6.07;;;;;;;16.36;100.00;101191.56;5032790;28;20179;-77
2023/10/03 08:42:17;;;;;;;6.95;4.80;;;;;;;16.40;100.00;101193.16;5047300;28;20037;-77
2023/10/03 08:44:51;;;;;;;8.02;5.22;;;;;;;16.43;100.00;101192.16;5034163;28;20037;-77
2023/10/03 08:47:49;;;;;;;7.13;4.28;;;;;;;16.44;100.00;101212.28;5006033;28;20087;-77
2023/10/03 08:50:33;;;;;;;10.25;4.05;;;;;;;16.45;100.00;101216.63;5030516;28;20031;-77
2023/10/03 08:53:12;;;;;;;5.85;3.33;;;;;;;16.39;100.00;101215.13;5021775;28;20037;-77
2023/10/03 08:55:39;;;;;;;5.80;3.35;;;;;;;16.42;100.00;101230.78;5042802;28;20038;-77
2023/10/03 08:58:04;;;;;;;7.28;3.50;;;;;;;16.51;100.00;101235.69;5024384;28;20058;-77
2023/10/03 09:00:40;;;;;;;7.18;3.15;;;;;;;16.49;100.00;101236.66;5044984;28;20111;-77
2023/10/03 09:03:10;;;;;;;5.53;3.00;;;;;;;16.29;100.00;101238.31;5024703;28;20033;-77
2023/10/03 09:05:39;;;;;;;3.33;1.60;;;;;;;16.03;100.00;101260.41;5045669;28;20495;-77
2023/10/03 09:08:08;;;;;;;3.83;1.30;;;;;;;15.73;100.00;101261.59;5025584;28;20541;-77
2023/10/03 09:10:34;;;;;;;2.63;1.02;;;;;;;15.53;100.00;101276.34;5027482;28;20416;-77
2023/10/03 09:13:07;;;;;;;3.22;1.20;;;;;;;15.52;100.00;101279.84;5031202;28;20029;-77
2023/10/03 09:15:37;;;;;;;2.25;0.90;;;;;;;15.65;100.00;101288.16;5038236;28;20034;-77
2023/10/03 09:18:09;;;;;;;2.47;1.05;;;;;;;15.75;100.00;101293.94;5080871;28;20393;-77
2023/10/03 09:20:35;;;;;;;2.90;1.45;;;;;;;15.96;100.00;101302.78;5035624;28;20094;-78
2023/10/03 09:23:07;;;;;;;3.67;1.38;;;;;;;15.99;100.00;101310.53;5040956;28;20026;-77
2023/10/03 09:25:34;;;;;;;6.40;1.33;;;;;;;16.03;100.00;101322.69;5029798;28;20080;-77
2023/10/03 09:28:04;;;;;;;4.38;1.40;;;;;;;16.08;100.00;101321.56;5043234;28;20099;-77
2023/10/03 09:30:37;;;;;;;2.50;1.60;;;;;;;16.09;100.00;101328.56;5025806;28;20049;-77
2023/10/03 09:33:04;;;;;;;2.33;1.10;;;;;;;16.05;100.00;101337.47;5024553;28;20019;-77
2023/10/03 09:35:30;;;;;;;3.38;1.42;;;;;;;16.13;100.00;101329.28;5059750;28;20027;-77
2023/10/03 09:37:56;;;;;;;3.55;1.25;;;;;;;16.15;100.00;101333.59;5037648;28;20048;-77
2023/10/03 09:40:22;;;;;;;3.90;1.35;;;;;;;16.10;100.00;101332.03;5026076;28;20037;-77
2023/10/03 09:42:49;;;;;;;3.75;1.52;;;;;;;16.04;100.00;101334.91;5055970;28;20026;-77
2023/10/03 09:45:24;;;;;;;4.93;1.30;;;;;;;15.98;100.00;101328.09;5032305;28;20026;-77
2023/10/03 09:47:58;;;;;;;2.95;1.42;;;;;;;15.98;100.00;101335.13;5037558;28;20031;-77
2023/10/03 09:50:26;;;;;;;5.40;1.77;;;;;;;16.02;100.00;101341.97;5046569;28;20028;-77
2023/10/03 09:52:52;;;;;;;6.43;2.03;;;;;;;15.89;100.00;101345.09;5026439;28;20033;-77
2023/10/03 09:55:22;;;;;;;4.32;1.45;;;;;;;15.86;100.00;101352.25;5074654;28;20024;-77
2023/10/03 09:57:54;;;;;;;5.18;1.45;;;;;;;15.83;100.00;101350.59;5027894;28;20388;-78
2023/10/03 10:00:38;;;;;;;5.70;1.60;;;;;;;15.93;100.00;101359.00;5042240;28;20160;-77
2023/10/03 10:03:06;;;;;;;2.60;1.38;;;;;;;16.08;100.00;101358.38;5026198;28;20022;-77
2023/10/03 10:05:32;;;;;;;5.78;1.65;;;;;;;16.27;100.00;101362.94;5047574;28;20364;-78
2023/10/03 10:08:27;;;;;;;3.88;1.42;;;;;;;16.57;100.00;101382.78;5030470;28;20022;-77
2023/10/03 10:11:09;;;;;;;6.60;1.27;;;;;;;16.95;100.00;101367.25;5039183;28;20027;-77
2023/10/03 10:13:37;;;;;;;5.88;1.50;;;;;;;17.13;100.00;101367.38;5060032;28;20385;-77
2023/10/03 10:16:13;;;;;;;2.78;1.50;;;;;;;17.16;100.00;101381.28;5048643;28;20024;-77
2023/10/03 10:18:44;;;;;;;6.07;1.75;;;;;;;17.11;100.00;101398.22;5033701;28;20443;-77
2023/10/03 10:21:36;;;;;;;5.85;1.55;;;;;;;16.80;100.00;101405.59;5048445;28;20039;-77
2023/10/03 10:24:20;;;;;;;5.63;1.50;;;;;;;16.58;100.00;101429.28;5013844;28;20037;-77
2023/10/03 10:26:52;;;;;;;6.05;1.65;;;;;;;16.39;100.00;101431.75;5048775;28;20057;-77
2023/10/03 10:29:28;;;;;;;4.70;1.58;;;;;;;16.33;100.00;101428.50;5028624;28;20029;-77
2023/10/03 10:32:00;;;;;;;7.45;1.55;;;;;;;16.33;100.00;101426.72;5012537;28;20025;-77
2023/10/03 10:34:27;;;;;;;6.20;1.50;;;;;;;16.63;100.00;101423.81;5035667;28;20025;-77
2023/10/03 10:37:15;;;;;;;3.83;1.40;;;;;;;17.09;100.00;101432.53;5050127;28;20030;-77
2023/10/03 10:40:10;;;;;;;5.22;1.30;;;;;;;17.54;100.00;101429.72;5036421;28;20038;-77
2023/10/03 10:43:04;;;;;;;3.72;1.23;;;;;;;17.82;100.00;101448.78;5051011;28;20029;-77
2023/10/03 10:45:38;;;;;;;4.30;2.08;;;;;;;18.11;100.00;101448.34;5021606;28;20064;-77
2023/10/03 10:48:05;;;;;;;4.07;1.30;;;;;;;18.23;100.00;101460.97;5037893;28;20505;-77
2023/10/03 10:51:04;;;;;;;2.70;1.10;;;;;;;18.13;100.00;101454.41;5043553;28;20055;-77
2023/10/03 10:53:56;;;;;;;2.65;0.77;;;;;;;17.99;100.00;101467.38;5012625;28;20037;-77
2023/10/03 10:56:26;;;;;;;5.35;1.08;;;;;;;17.69;100.00;101464.25;5046411;28;20052;-77
2023/10/03 10:59:04;;;;;;;0.50;0.43;;;;;;;17.29;100.00;101472.06;5030368;28;20032;-77
2023/10/03 11:01:30;;;;;;;1.52;0.63;;;;;;;16.74;100.00;101478.66;5013265;28;20146;-78
2023/10/03 11:03:56;;;;;;;1.80;0.80;;;;;;;16.49;100.00;101492.78;5030589;28;20033;-77
2023/10/03 11:06:23;;;;;;;1.20;0.80;;;;;;;16.32;100.00;101489.94;5045875;28;20033;-77
2023/10/03 11:08:50;;;;;;;1.85;0.80;;;;;;;16.37;100.00;101488.81;5032284;28;20021;-77
2023/10/03 11:11:16;;;;;;;5.88;1.00;;;;;;;16.50;100.00;101491.00;5045442;28;20032;-77
2023/10/03 11:13:46;;;;;;;3.40;0.98;;;;;;;16.51;100.00;101496.22;5033172;28;20034;-78
2023/10/03 11:16:19;;;;;;;1.50;0.93;;;;;;;16.35;100.00;101500.34;5047504;28;20030;-77
2023/10/03 11:18:45;;;;;;;2.45;1.10;;;;;;;16.25;100.00;101488.41;5009793;28;20029;-77
2023/10/03 11:21:10;;;;;;;5.00;1.00;;;;;;;16.42;100.00;101485.19;5049178;28;20038;-78